createdAt,value
2024-01-31T00:01:55.040Z,6.90
2024-01-31T00:04:21.892Z,6.90
2024-01-31T00:06:52.122Z,6.90
2024-01-31T00:09:18.874Z,6.90
2024-01-31T00:11:45.737Z,6.90
2024-01-31T00:14:14.978Z,6.90
2024-01-31T00:16:41.711Z,6.90
2024-01-31T00:19:08.503Z,6.90
2024-01-31T00:21:35.259Z,6.90
2024-01-31T00:24:02.019Z,6.90
2024-01-31T00:26:28.685Z,6.90
2024-01-31T00:28:55.395Z,6.90
2024-01-31T00:31:22.488Z,6.90
2024-01-31T00:33:49.298Z,6.80
2024-01-31T00:36:16.472Z,6.80
2024-01-31T00:38:43.333Z,6.80
2024-01-31T00:41:10.099Z,6.80
2024-01-31T00:43:36.917Z,6.80
2024-01-31T00:46:05.077Z,6.80
2024-01-31T00:48:33.616Z,6.80
2024-01-31T00:51:00.828Z,6.80
2024-01-31T00:53:27.539Z,6.80
2024-01-31T00:55:54.269Z,6.90
2024-01-31T00:58:21.038Z,6.90
2024-01-31T01:00:47.967Z,7.00
2024-01-31T01:03:14.637Z,7.20
2024-01-31T01:05:41.370Z,7.40
2024-01-31T01:08:08.200Z,7.50
2024-01-31T01:10:34.922Z,7.50
2024-01-31T01:13:02.239Z,7.70
2024-01-31T01:15:29.191Z,7.70
2024-01-31T01:17:55.901Z,7.70
2024-01-31T01:20:22.717Z,7.80
2024-01-31T01:22:49.547Z,7.80
2024-01-31T01:25:16.970Z,7.90
2024-01-31T01:27:51.829Z,7.90
2024-01-31T01:30:19.941Z,7.90
2024-01-31T01:32:46.724Z,8.00
2024-01-31T01:35:14.666Z,8.00
2024-01-31T01:37:42.059Z,8.00
2024-01-31T01:40:10.206Z,7.90
2024-01-31T01:42:40.770Z,8.00
2024-01-31T01:45:08.385Z,8.10
2024-01-31T01:47:37.446Z,8.00
2024-01-31T01:50:05.026Z,8.00
2024-01-31T01:52:33.336Z,8.00
2024-01-31T01:55:04.040Z,8.00
2024-01-31T01:57:34.557Z,8.00
2024-01-31T02:00:01.704Z,8.10
2024-01-31T02:02:29.071Z,8.10
2024-01-31T02:04:55.988Z,8.10
2024-01-31T02:07:27.940Z,8.20
2024-01-31T02:09:54.977Z,8.20
2024-01-31T02:12:21.683Z,8.20
2024-01-31T02:14:48.734Z,8.20
2024-01-31T02:17:15.764Z,8.20
2024-01-31T02:19:42.709Z,8.30
2024-01-31T02:22:21.870Z,8.30
2024-01-31T02:24:48.712Z,8.30
2024-01-31T02:27:15.680Z,8.30
2024-01-31T02:29:42.399Z,8.30
2024-01-31T02:32:09.244Z,8.30
2024-01-31T02:34:36.407Z,8.30
2024-01-31T02:37:03.520Z,8.30
2024-01-31T02:39:32.384Z,8.30
2024-01-31T02:41:59.319Z,8.30
2024-01-31T02:44:26.108Z,8.30
2024-01-31T02:46:52.839Z,8.40
2024-01-31T02:49:19.776Z,8.40
2024-01-31T02:51:47.088Z,8.30
2024-01-31T02:54:13.763Z,8.40
2024-01-31T02:56:40.476Z,8.40
2024-01-31T02:59:07.179Z,8.30
2024-01-31T03:01:34.062Z,8.30
2024-01-31T03:04:00.930Z,8.30
2024-01-31T03:06:27.662Z,8.30
2024-01-31T03:08:54.605Z,8.30
2024-01-31T03:11:21.299Z,8.20
2024-01-31T03:13:48.025Z,8.20
2024-01-31T03:16:14.700Z,8.10
2024-01-31T03:18:41.497Z,8.10
2024-01-31T03:21:08.208Z,8.00
2024-01-31T03:23:34.883Z,8.00
2024-01-31T03:26:01.705Z,7.90
2024-01-31T03:28:28.543Z,7.90
2024-01-31T03:30:55.249Z,7.90
2024-01-31T03:33:22.157Z,8.00
2024-01-31T03:35:49.102Z,7.90
2024-01-31T03:38:15.851Z,7.90
2024-01-31T03:40:42.723Z,7.90
2024-01-31T03:43:09.589Z,7.90
2024-01-31T03:45:36.265Z,7.90
2024-01-31T03:48:02.998Z,8.00
2024-01-31T03:50:29.777Z,8.00
2024-01-31T03:52:56.493Z,7.90
2024-01-31T03:55:23.229Z,7.90
2024-01-31T03:57:49.881Z,8.00
2024-01-31T04:00:17.211Z,8.00
2024-01-31T04:02:43.870Z,8.00
2024-01-31T04:05:13.856Z,8.00
2024-01-31T04:07:45.294Z,8.00
2024-01-31T04:10:13.716Z,8.00
2024-01-31T04:12:40.478Z,8.00
2024-01-31T04:15:07.769Z,8.00
2024-01-31T04:17:34.555Z,8.00
2024-01-31T04:20:01.764Z,8.00
2024-01-31T04:22:28.604Z,8.00
2024-01-31T04:24:56.882Z,8.00
2024-01-31T04:27:23.568Z,8.00
2024-01-31T04:29:50.268Z,8.00
2024-01-31T04:32:16.973Z,8.00
2024-01-31T04:34:43.734Z,8.00
2024-01-31T04:37:10.556Z,8.00
2024-01-31T04:39:37.745Z,8.00
2024-01-31T04:42:05.198Z,8.00
2024-01-31T04:44:32.054Z,8.00
2024-01-31T04:46:58.831Z,8.00
2024-01-31T04:49:25.756Z,8.00
2024-01-31T04:51:53.064Z,8.00
2024-01-31T04:54:19.844Z,8.00
2024-01-31T04:56:46.712Z,8.00
2024-01-31T04:59:13.524Z,8.10
2024-01-31T05:01:40.524Z,8.10
2024-01-31T05:04:07.471Z,8.20
2024-01-31T05:06:34.469Z,8.20
2024-01-31T05:09:01.448Z,8.20
2024-01-31T05:11:28.123Z,8.30
2024-01-31T05:13:54.944Z,8.30
2024-01-31T05:16:21.757Z,8.30
2024-01-31T05:18:48.591Z,8.40
2024-01-31T05:21:15.352Z,8.40
2024-01-31T05:23:42.005Z,8.50
2024-01-31T05:26:09.687Z,8.50
2024-01-31T05:28:37.878Z,8.50
2024-01-31T05:31:05.321Z,8.40
2024-01-31T05:33:32.481Z,8.20
2024-01-31T05:36:00.357Z,8.00
2024-01-31T05:38:27.298Z,7.80
2024-01-31T05:40:54.036Z,7.60
2024-01-31T05:43:20.875Z,7.50
2024-01-31T05:45:47.591Z,7.40
2024-01-31T05:48:15.645Z,7.30
2024-01-31T05:50:42.537Z,7.30
2024-01-31T05:53:09.971Z,7.30
2024-01-31T05:55:37.098Z,7.30
2024-01-31T05:58:04.101Z,7.30
2024-01-31T06:00:30.867Z,7.40
2024-01-31T06:03:00.393Z,7.40
2024-01-31T06:05:28.463Z,7.40
2024-01-31T06:07:55.357Z,7.40
2024-01-31T06:10:22.648Z,7.40
2024-01-31T06:12:49.456Z,7.40
2024-01-31T06:15:16.347Z,7.40
2024-01-31T06:17:43.133Z,7.40
2024-01-31T06:20:10.872Z,7.40
2024-01-31T06:22:37.729Z,7.40
2024-01-31T06:25:05.202Z,7.40
2024-01-31T06:27:32.151Z,7.40
2024-01-31T06:30:01.400Z,7.40
2024-01-31T06:32:33.328Z,7.40
2024-01-31T06:35:00.767Z,7.40
2024-01-31T06:37:28.518Z,7.40
2024-01-31T06:39:55.752Z,7.40
2024-01-31T06:42:22.752Z,7.40
2024-01-31T06:44:49.876Z,7.40
2024-01-31T06:47:16.632Z,7.30
2024-01-31T06:49:43.610Z,7.40
2024-01-31T06:52:11.759Z,7.30
2024-01-31T06:54:38.732Z,7.40
2024-01-31T06:57:05.671Z,7.30
2024-01-31T06:59:32.398Z,7.30
2024-01-31T07:01:59.162Z,7.30
2024-01-31T07:04:26.011Z,7.30
2024-01-31T07:06:53.205Z,7.30
2024-01-31T07:09:20.341Z,7.30
2024-01-31T07:11:47.026Z,7.30
2024-01-31T07:14:13.738Z,7.30
2024-01-31T07:16:40.692Z,7.30
2024-01-31T07:19:07.664Z,7.30
2024-01-31T07:21:34.599Z,7.30
2024-01-31T07:24:07.118Z,7.20
2024-01-31T07:26:42.713Z,7.20
2024-01-31T07:29:11.214Z,7.20
2024-01-31T07:31:37.960Z,7.20
2024-01-31T07:34:04.887Z,7.20
2024-01-31T07:36:31.664Z,7.20
2024-01-31T07:38:58.329Z,7.20
2024-01-31T07:41:25.010Z,7.20
2024-01-31T07:43:51.724Z,7.20
2024-01-31T07:46:18.619Z,7.20
2024-01-31T07:48:45.405Z,7.30
2024-01-31T07:51:12.104Z,7.30
2024-01-31T07:53:41.662Z,7.30
2024-01-31T07:56:08.461Z,7.30
2024-01-31T07:58:35.258Z,7.40
2024-01-31T08:01:02.477Z,7.40
2024-01-31T08:03:29.384Z,7.40
2024-01-31T08:05:56.182Z,7.40
2024-01-31T08:08:22.962Z,7.40
2024-01-31T08:10:49.844Z,7.40
2024-01-31T08:13:16.893Z,7.40
2024-01-31T08:15:43.650Z,7.40
2024-01-31T08:18:10.425Z,7.40
2024-01-31T08:20:37.318Z,7.30
2024-01-31T08:23:04.230Z,7.40
2024-01-31T08:25:31.101Z,7.30
2024-01-31T08:27:57.995Z,7.20
2024-01-31T08:30:24.745Z,7.20
2024-01-31T08:32:51.751Z,7.30
2024-01-31T08:35:18.505Z,7.30
2024-01-31T08:37:45.490Z,7.30
2024-01-31T08:40:14.144Z,7.40
2024-01-31T08:42:41.730Z,7.30
2024-01-31T08:45:10.714Z,7.30
2024-01-31T08:47:37.639Z,7.30
2024-01-31T08:50:04.865Z,7.40
2024-01-31T08:52:31.970Z,7.40
2024-01-31T08:54:58.813Z,7.40
2024-01-31T08:57:25.587Z,7.40
2024-01-31T08:59:52.316Z,7.60
2024-01-31T09:02:19.323Z,7.50
2024-01-31T09:04:46.145Z,7.60
2024-01-31T09:07:12.971Z,7.60
2024-01-31T09:09:40.696Z,7.60
2024-01-31T09:12:07.682Z,7.60
2024-01-31T09:14:34.958Z,7.70
2024-01-31T09:17:01.791Z,7.70
2024-01-31T09:19:29.358Z,7.70
2024-01-31T09:21:56.189Z,7.80
2024-01-31T09:24:22.931Z,7.70
2024-01-31T09:26:49.782Z,7.80
2024-01-31T09:29:16.526Z,7.80
2024-01-31T09:31:43.311Z,7.80
2024-01-31T09:34:10.220Z,8.00
2024-01-31T09:36:37.296Z,8.00
2024-01-31T09:39:04.803Z,8.00
2024-01-31T09:41:31.758Z,8.00
2024-01-31T09:43:58.586Z,8.10
2024-01-31T09:46:25.709Z,8.10
2024-01-31T09:48:52.891Z,8.10
2024-01-31T09:51:22.124Z,8.00
2024-01-31T09:53:53.669Z,7.90
2024-01-31T09:56:21.001Z,7.90
2024-01-31T09:58:48.544Z,8.00
2024-01-31T10:01:24.876Z,8.00
2024-01-31T10:03:58.167Z,8.10
2024-01-31T10:06:26.044Z,8.20
2024-01-31T10:08:52.847Z,8.30
2024-01-31T10:11:19.521Z,8.20
2024-01-31T10:13:48.063Z,8.30
2024-01-31T10:16:16.144Z,8.40
2024-01-31T10:18:43.016Z,8.40
2024-01-31T10:21:11.295Z,8.40
2024-01-31T10:23:38.189Z,8.50
2024-01-31T10:26:08.951Z,8.50
2024-01-31T10:28:41.188Z,8.60
2024-01-31T10:31:08.702Z,8.60
2024-01-31T10:33:36.524Z,8.60
2024-01-31T10:36:46.039Z,8.60
2024-01-31T10:38:51.710Z,8.60
2024-01-31T10:41:20.527Z,8.60
2024-01-31T10:43:49.795Z,8.50
2024-01-31T10:46:16.700Z,8.60
2024-01-31T10:48:43.594Z,8.50
2024-01-31T10:51:11.828Z,8.70
2024-01-31T10:53:40.936Z,8.50
2024-01-31T10:56:09.567Z,8.60
2024-01-31T10:58:37.774Z,8.60
2024-01-31T11:01:05.629Z,8.70
2024-01-31T11:03:33.138Z,8.70
2024-01-31T11:06:00.184Z,8.80
2024-01-31T11:08:28.302Z,8.80
2024-01-31T11:10:55.456Z,8.80
2024-01-31T11:13:22.330Z,8.80
2024-01-31T11:15:49.127Z,8.80
2024-01-31T11:18:17.074Z,8.80
2024-01-31T11:20:50.723Z,8.90
2024-01-31T11:23:23.567Z,8.90
2024-01-31T11:25:53.930Z,8.80
2024-01-31T11:28:22.739Z,9.00
2024-01-31T11:30:55.518Z,8.90
2024-01-31T11:33:23.178Z,8.90
2024-01-31T11:35:50.489Z,9.00
2024-01-31T11:38:18.260Z,9.00
2024-01-31T11:40:45.012Z,9.00
2024-01-31T11:43:11.873Z,9.10
2024-01-31T11:45:39.942Z,9.20
2024-01-31T11:48:06.980Z,9.20
2024-01-31T11:50:34.313Z,9.20
2024-01-31T11:53:01.491Z,9.30
2024-01-31T11:55:30.697Z,9.30
2024-01-31T11:57:57.745Z,9.40
2024-01-31T12:00:25.760Z,9.40
2024-01-31T12:02:54.058Z,9.40
2024-01-31T12:05:21.294Z,9.20
2024-01-31T12:08:00.984Z,9.30
2024-01-31T12:10:28.964Z,9.30
2024-01-31T12:12:59.253Z,9.20
2024-01-31T12:15:26.709Z,9.30
2024-01-31T12:17:54.648Z,9.30
2024-01-31T12:20:21.709Z,9.30
2024-01-31T12:22:48.583Z,9.40
2024-01-31T12:25:15.615Z,9.40
2024-01-31T12:27:42.362Z,9.40
2024-01-31T12:30:10.832Z,9.40
2024-01-31T12:32:38.133Z,9.50
2024-01-31T12:35:05.632Z,9.50
2024-01-31T12:37:32.539Z,9.60
2024-01-31T12:39:59.314Z,9.60
2024-01-31T12:42:26.712Z,9.60
2024-01-31T12:44:53.826Z,9.60
2024-01-31T12:47:23.082Z,9.60
2024-01-31T12:49:49.814Z,9.60
2024-01-31T12:52:16.804Z,9.60
2024-01-31T12:54:43.549Z,9.70
2024-01-31T12:57:10.276Z,9.70
2024-01-31T12:59:37.292Z,9.70
2024-01-31T13:02:04.217Z,9.70
2024-01-31T13:04:31.319Z,9.60
2024-01-31T13:06:59.798Z,9.60
2024-01-31T13:09:26.954Z,9.70
2024-01-31T13:11:53.694Z,9.70
2024-01-31T13:14:20.402Z,9.60
2024-01-31T13:16:55.146Z,9.60
2024-01-31T13:19:28.409Z,9.60
2024-01-31T13:21:55.293Z,9.60
2024-01-31T13:24:22.551Z,9.50
2024-01-31T13:26:49.805Z,9.50
2024-01-31T13:29:16.732Z,9.50
2024-01-31T13:31:43.480Z,9.50
2024-01-31T13:34:11.095Z,9.60
2024-01-31T13:36:38.126Z,9.60
2024-01-31T13:39:05.374Z,9.60
2024-01-31T13:41:32.306Z,9.60
2024-01-31T13:43:59.077Z,9.70
2024-01-31T13:46:26.000Z,9.70
2024-01-31T13:48:53.046Z,9.80
2024-01-31T13:51:19.973Z,10.00
2024-01-31T13:53:46.750Z,9.90
2024-01-31T13:56:13.470Z,10.00
2024-01-31T13:58:40.343Z,10.00
2024-01-31T14:01:07.124Z,10.10
2024-01-31T14:03:33.898Z,10.00
2024-01-31T14:06:00.784Z,10.00
2024-01-31T14:08:27.655Z,10.10
2024-01-31T14:10:54.366Z,10.10
2024-01-31T14:13:21.160Z,10.30
2024-01-31T14:15:47.874Z,10.20
2024-01-31T14:18:16.040Z,10.10
2024-01-31T14:20:42.949Z,10.00
2024-01-31T14:25:39.545Z,10.00
2024-01-31T14:28:06.330Z,10.20
2024-01-31T14:30:34.794Z,10.30
2024-01-31T14:33:01.635Z,10.50
2024-01-31T14:35:28.429Z,10.70
2024-01-31T14:37:55.357Z,10.60
2024-01-31T14:40:22.081Z,10.70
2024-01-31T14:42:48.841Z,10.70
2024-01-31T14:45:15.867Z,10.70
2024-01-31T14:47:42.817Z,10.70
2024-01-31T14:50:09.806Z,10.60
2024-01-31T14:52:36.528Z,10.50
2024-01-31T14:55:04.689Z,10.60
2024-01-31T14:57:31.394Z,10.50
2024-01-31T14:59:58.165Z,10.50
2024-01-31T15:02:26.240Z,10.40
2024-01-31T15:04:53.211Z,10.30
2024-01-31T15:07:20.144Z,10.10
2024-01-31T15:09:47.028Z,9.90
2024-01-31T15:12:13.826Z,9.90
2024-01-31T15:14:40.895Z,9.80
2024-01-31T15:17:07.793Z,9.80
2024-01-31T15:19:35.395Z,10.00
2024-01-31T15:22:02.459Z,10.10
2024-01-31T15:24:29.138Z,10.30
2024-01-31T15:26:56.073Z,10.40
2024-01-31T15:29:22.969Z,10.40
2024-01-31T15:31:49.686Z,10.50
2024-01-31T15:34:16.471Z,10.50
2024-01-31T15:36:46.862Z,10.40
2024-01-31T15:39:13.885Z,10.40
2024-01-31T15:41:40.703Z,10.30
2024-01-31T15:44:07.536Z,10.20
2024-01-31T15:46:40.914Z,10.10
2024-01-31T15:49:08.221Z,10.10
2024-01-31T15:51:42.842Z,10.10
2024-01-31T15:54:10.670Z,10.00
2024-01-31T15:56:37.585Z,10.00
2024-01-31T15:59:04.271Z,10.00
2024-01-31T16:01:32.490Z,10.00
2024-01-31T16:03:59.800Z,9.90
2024-01-31T16:06:27.673Z,9.90
2024-01-31T16:08:55.888Z,9.90
2024-01-31T16:11:23.470Z,9.80
2024-01-31T16:13:50.221Z,9.90
2024-01-31T16:16:16.962Z,9.90
2024-01-31T16:18:44.451Z,9.90
2024-01-31T16:21:13.420Z,10.10
2024-01-31T16:23:40.913Z,9.90
2024-01-31T16:26:08.720Z,9.90
2024-01-31T16:28:35.473Z,9.90
2024-01-31T16:31:04.103Z,9.80
2024-01-31T16:33:31.327Z,9.80
2024-01-31T16:35:59.831Z,9.80
2024-01-31T16:38:26.874Z,9.80
2024-01-31T16:40:53.682Z,9.70
2024-01-31T16:43:20.470Z,9.60
2024-01-31T16:45:47.434Z,9.60
2024-01-31T16:48:14.623Z,9.50
2024-01-31T16:50:41.836Z,9.50
2024-01-31T16:53:08.657Z,9.50
2024-01-31T16:55:35.345Z,9.50
2024-01-31T16:58:02.162Z,9.50
2024-01-31T17:00:29.037Z,9.40
2024-01-31T17:02:56.106Z,9.40
2024-01-31T17:05:23.294Z,9.40
2024-01-31T17:07:50.204Z,9.50
2024-01-31T17:10:16.944Z,9.40
2024-01-31T17:12:44.745Z,9.50
2024-01-31T17:15:12.079Z,9.50
2024-01-31T17:17:39.283Z,9.60
2024-01-31T17:20:07.426Z,9.50
2024-01-31T17:22:34.223Z,9.40
2024-01-31T17:25:02.815Z,9.40
2024-01-31T17:27:29.529Z,9.40
2024-01-31T17:29:56.547Z,9.30
2024-01-31T17:32:23.650Z,9.30
2024-01-31T17:34:50.610Z,9.20
2024-01-31T17:37:17.483Z,9.20
2024-01-31T17:39:44.185Z,9.20
2024-01-31T17:42:10.982Z,9.20
2024-01-31T17:44:37.899Z,9.10
2024-01-31T17:47:04.829Z,9.20
2024-01-31T17:49:31.661Z,9.10
2024-01-31T17:51:58.432Z,9.10
2024-01-31T17:54:25.198Z,9.10
2024-01-31T17:56:52.221Z,9.10
2024-01-31T17:59:19.278Z,9.00
2024-01-31T18:01:46.134Z,8.90
2024-01-31T18:04:13.069Z,9.00
2024-01-31T18:06:42.757Z,8.90
2024-01-31T18:09:11.348Z,8.90
2024-01-31T18:11:38.717Z,8.90
2024-01-31T18:14:06.086Z,9.00
2024-01-31T18:16:33.184Z,8.90
2024-01-31T18:19:03.730Z,8.90
2024-01-31T18:21:38.082Z,8.80
2024-01-31T18:24:06.376Z,8.90
2024-01-31T18:26:36.635Z,8.80
2024-01-31T18:29:04.276Z,8.70
2024-01-31T18:31:30.947Z,8.70
2024-01-31T18:33:57.930Z,8.70
2024-01-31T18:36:24.945Z,8.70
2024-01-31T18:38:52.647Z,8.60
2024-01-31T18:41:19.773Z,8.60
2024-01-31T18:43:47.317Z,8.60
2024-01-31T18:46:14.087Z,8.60
2024-01-31T18:48:41.005Z,8.60
2024-01-31T18:51:07.859Z,8.60
2024-01-31T18:53:36.178Z,8.60
2024-01-31T18:56:03.117Z,8.60
2024-01-31T18:58:29.881Z,8.50
2024-01-31T19:01:00.515Z,8.50
2024-01-31T19:03:27.390Z,8.50
2024-01-31T19:05:54.282Z,8.40
2024-01-31T19:08:21.186Z,8.70
2024-01-31T19:10:48.611Z,8.40
2024-01-31T19:13:15.326Z,8.40
2024-01-31T19:15:42.136Z,8.50
2024-01-31T19:18:09.508Z,8.50
2024-01-31T19:20:37.262Z,8.50
2024-01-31T19:23:04.383Z,8.40
2024-01-31T19:25:31.479Z,8.40
2024-01-31T19:27:58.266Z,8.40
2024-01-31T19:30:25.514Z,8.40
2024-01-31T19:32:53.217Z,8.40
2024-01-31T19:35:20.223Z,8.40
2024-01-31T19:37:47.072Z,8.30
2024-01-31T19:40:14.302Z,8.40
2024-01-31T19:42:41.093Z,8.40
2024-01-31T19:45:09.459Z,8.40
2024-01-31T19:47:36.617Z,8.40
2024-01-31T19:50:03.740Z,8.40
2024-01-31T19:52:35.544Z,8.40
2024-01-31T19:55:02.671Z,8.40
2024-01-31T19:57:30.655Z,8.40
2024-01-31T19:59:57.516Z,8.40
2024-01-31T20:02:24.222Z,8.40
2024-01-31T20:04:51.128Z,8.40
2024-01-31T20:07:21.019Z,8.40
2024-01-31T20:09:49.662Z,8.40
2024-01-31T20:12:16.430Z,8.40
2024-01-31T20:14:43.442Z,8.40
2024-01-31T20:17:10.201Z,8.40
2024-01-31T20:19:37.031Z,8.30
2024-01-31T20:22:04.291Z,8.30
2024-01-31T20:24:31.016Z,8.30
2024-01-31T20:26:57.823Z,8.20
2024-01-31T20:29:24.829Z,8.20
2024-01-31T20:31:51.592Z,8.20
2024-01-31T20:34:18.563Z,8.20
2024-01-31T20:36:45.417Z,8.20
2024-01-31T20:39:13.290Z,8.20
2024-01-31T20:41:44.152Z,8.20
2024-01-31T20:44:11.164Z,8.20
2024-01-31T20:46:37.933Z,8.20
2024-01-31T20:49:04.784Z,8.10
2024-01-31T20:51:31.716Z,8.20
2024-01-31T20:53:58.527Z,8.20
2024-01-31T20:56:27.800Z,8.20
2024-01-31T20:58:55.795Z,8.20
2024-01-31T21:01:22.663Z,8.40
2024-01-31T21:03:50.250Z,8.20
2024-01-31T21:06:17.353Z,8.30
2024-01-31T21:08:44.209Z,8.20
2024-01-31T21:11:11.050Z,8.20
2024-01-31T21:13:37.797Z,8.20
2024-01-31T21:16:06.231Z,8.10
2024-01-31T21:18:33.544Z,8.20
2024-01-31T21:21:00.350Z,8.20
2024-01-31T21:23:27.559Z,8.20
2024-01-31T21:25:54.547Z,8.20
2024-01-31T21:28:21.636Z,8.20
2024-01-31T21:30:48.592Z,8.20
2024-01-31T21:33:15.562Z,8.20
2024-01-31T21:35:42.482Z,8.20
2024-01-31T21:38:09.305Z,8.20
2024-01-31T21:40:36.003Z,8.20
2024-01-31T21:43:02.880Z,8.20
2024-01-31T21:45:29.649Z,8.20
2024-01-31T21:47:56.446Z,8.20
2024-01-31T21:50:23.350Z,8.20
2024-01-31T21:52:50.309Z,8.30
2024-01-31T21:55:17.145Z,8.30
2024-01-31T21:57:43.864Z,8.20
2024-01-31T22:00:12.583Z,8.30
2024-01-31T22:02:40.332Z,8.20
2024-01-31T22:05:07.430Z,8.30
2024-01-31T22:07:34.276Z,8.30
2024-01-31T22:10:01.050Z,8.30
2024-01-31T22:12:29.063Z,8.20
2024-01-31T22:14:55.811Z,8.20
2024-01-31T22:17:23.995Z,8.20
2024-01-31T22:19:50.918Z,8.20
2024-01-31T22:22:17.703Z,8.20
2024-01-31T22:24:44.431Z,8.20
2024-01-31T22:27:11.294Z,8.20
2024-01-31T22:29:38.078Z,8.20
2024-01-31T22:32:06.362Z,8.20
2024-01-31T22:34:33.891Z,8.20
2024-01-31T22:37:07.753Z,8.20
2024-01-31T22:39:34.584Z,8.20
2024-01-31T22:42:01.355Z,8.20
2024-01-31T22:44:28.156Z,8.20
2024-01-31T22:46:54.888Z,8.30
2024-01-31T22:49:21.849Z,8.30
2024-01-31T22:51:49.753Z,8.30
2024-01-31T22:54:16.779Z,8.30
2024-01-31T22:56:43.643Z,8.30
2024-01-31T22:59:10.712Z,8.30
2024-01-31T23:01:37.445Z,8.30
2024-01-31T23:04:05.084Z,8.30
2024-01-31T23:06:32.390Z,8.30
2024-01-31T23:08:59.426Z,8.30
2024-01-31T23:11:26.336Z,8.30
2024-01-31T23:13:53.380Z,8.40
2024-01-31T23:16:21.044Z,8.40
2024-01-31T23:18:47.944Z,8.30
2024-01-31T23:21:14.969Z,8.30
2024-01-31T23:23:42.866Z,8.30
2024-01-31T23:26:09.810Z,8.30
2024-01-31T23:28:36.538Z,8.60
2024-01-31T23:31:03.956Z,8.30
2024-01-31T23:33:30.787Z,8.30
2024-01-31T23:35:57.924Z,8.30
2024-01-31T23:38:26.663Z,8.30
2024-01-31T23:40:54.171Z,8.30
2024-01-31T23:43:21.212Z,8.30
2024-01-31T23:45:48.160Z,8.30
2024-01-31T23:48:15.069Z,8.30
2024-01-31T23:50:41.983Z,8.30
2024-01-31T23:53:08.803Z,8.30
2024-01-31T23:55:35.549Z,8.30
2024-01-31T23:58:02.253Z,8.20
